createdAt,value
2023-03-08T00:02:07.502Z,0.40
2023-03-08T00:04:36.506Z,0.30
2023-03-08T00:07:03.447Z,0.30
2023-03-08T00:09:30.280Z,0.30
2023-03-08T00:11:57.117Z,0.20
2023-03-08T00:14:23.963Z,0.20
2023-03-08T00:16:50.749Z,0.30
2023-03-08T00:19:17.542Z,0.20
2023-03-08T00:21:44.445Z,0.20
2023-03-08T00:24:12.458Z,0.20
2023-03-08T00:26:39.303Z,0.20
2023-03-08T00:29:06.179Z,0.10
2023-03-08T00:31:33.029Z,0.10
2023-03-08T00:33:59.881Z,0.10
2023-03-08T00:36:26.995Z,0.10
2023-03-08T00:38:53.792Z,0.10
2023-03-08T00:41:20.669Z,0.10
2023-03-08T00:43:47.397Z,0.10
2023-03-08T00:46:14.989Z,0.10
2023-03-08T00:48:42.425Z,0.00
2023-03-08T00:51:13.355Z,0.00
2023-03-08T00:53:40.195Z,0.00
2023-03-08T00:56:07.146Z,0.00
2023-03-08T00:58:33.909Z,0.00
2023-03-08T01:01:00.757Z,0.00
2023-03-08T01:03:27.734Z,0.00
2023-03-08T01:05:55.799Z,0.00
2023-03-08T01:08:24.195Z,-0.10
2023-03-08T01:10:53.676Z,-0.10
2023-03-08T01:13:21.078Z,-0.10
2023-03-08T01:15:47.935Z,-0.10
2023-03-08T01:18:14.916Z,-0.10
2023-03-08T01:20:41.896Z,-0.10
2023-03-08T01:23:09.320Z,-0.10
2023-03-08T01:25:36.818Z,-0.20
2023-03-08T01:28:03.778Z,-0.20
2023-03-08T01:30:30.659Z,-0.20
2023-03-08T01:32:57.504Z,-0.20
2023-03-08T01:35:24.238Z,-0.20
2023-03-08T01:37:51.799Z,-0.20
2023-03-08T01:40:18.584Z,-0.20
2023-03-08T01:42:45.434Z,-0.20
2023-03-08T01:45:49.901Z,-0.20
2023-03-08T01:48:17.821Z,-0.20
2023-03-08T01:50:46.500Z,-0.30
2023-03-08T01:53:13.650Z,-0.20
2023-03-08T01:55:41.161Z,-0.30
2023-03-08T01:58:08.112Z,-0.30
2023-03-08T02:00:34.942Z,-0.30
2023-03-08T02:03:08.403Z,-0.30
2023-03-08T02:05:37.897Z,-0.30
2023-03-08T02:08:04.737Z,-0.30
2023-03-08T02:10:32.254Z,-0.30
2023-03-08T02:12:59.136Z,-0.40
2023-03-08T02:15:25.931Z,-0.30
2023-03-08T02:17:52.960Z,-0.30
2023-03-08T02:20:32.575Z,-0.30
2023-03-08T02:23:13.255Z,-0.30
2023-03-08T02:25:42.947Z,-0.40
2023-03-08T02:28:10.013Z,-0.40
2023-03-08T02:30:40.564Z,-0.40
2023-03-08T02:33:07.536Z,-0.40
2023-03-08T02:35:35.448Z,-0.40
2023-03-08T02:38:02.200Z,-0.40
2023-03-08T02:40:29.124Z,-0.40
2023-03-08T02:42:55.920Z,-0.40
2023-03-08T02:45:23.173Z,-0.40
2023-03-08T02:47:50.176Z,-0.40
2023-03-08T02:50:17.087Z,-0.40
2023-03-08T02:52:43.827Z,-0.40
2023-03-08T02:55:11.307Z,-0.40
2023-03-08T02:57:38.495Z,-0.50
2023-03-08T03:00:05.957Z,-0.50
2023-03-08T03:02:33.969Z,-0.50
2023-03-08T03:05:02.355Z,-0.50
2023-03-08T03:07:29.083Z,-0.50
2023-03-08T03:09:56.297Z,-0.50
2023-03-08T03:12:23.073Z,-0.50
2023-03-08T03:14:49.980Z,-0.40
2023-03-08T03:17:16.861Z,-0.50
2023-03-08T03:19:43.650Z,-0.50
2023-03-08T03:22:10.490Z,-0.50
2023-03-08T03:24:37.622Z,-0.50
2023-03-08T03:27:04.589Z,-0.50
2023-03-08T03:29:31.431Z,-0.40
2023-03-08T03:31:58.315Z,-0.40
2023-03-08T03:34:25.155Z,-0.40
2023-03-08T03:36:51.901Z,-0.50
2023-03-08T03:39:18.732Z,-0.50
2023-03-08T03:41:45.487Z,-0.50
2023-03-08T03:44:12.371Z,-0.50
2023-03-08T03:46:39.217Z,-0.50
2023-03-08T03:49:05.996Z,-0.50
2023-03-08T03:51:32.801Z,-0.60
2023-03-08T03:53:59.698Z,-0.60
2023-03-08T03:56:27.937Z,-0.60
2023-03-08T03:58:54.916Z,-0.50
2023-03-08T04:01:25.563Z,-0.60
2023-03-08T04:03:53.289Z,-0.50
2023-03-08T04:06:23.824Z,-0.50
2023-03-08T04:08:56.222Z,-0.50
2023-03-08T04:11:26.632Z,-0.50
2023-03-08T04:13:53.498Z,-0.50
2023-03-08T04:16:22.833Z,-0.50
2023-03-08T04:18:53.563Z,-0.50
2023-03-08T04:21:22.911Z,-0.50
2023-03-08T04:23:49.706Z,-0.40
2023-03-08T04:26:16.724Z,-0.40
2023-03-08T04:28:43.696Z,-0.40
2023-03-08T04:31:22.410Z,-0.40
2023-03-08T04:33:50.197Z,-0.30
2023-03-08T04:36:18.152Z,-0.30
2023-03-08T04:38:48.156Z,-0.30
2023-03-08T04:41:15.061Z,-0.30
2023-03-08T04:43:52.982Z,-0.30
2023-03-08T04:46:22.404Z,-0.30
2023-03-08T04:48:49.563Z,-0.30
2023-03-08T04:51:16.967Z,-0.30
2023-03-08T04:53:43.908Z,-0.40
2023-03-08T04:56:11.478Z,-0.40
2023-03-08T04:58:38.428Z,-0.50
2023-03-08T05:01:10.529Z,-0.50
2023-03-08T05:03:37.517Z,-0.50
2023-03-08T05:06:05.030Z,-0.60
2023-03-08T05:08:31.831Z,-0.60
2023-03-08T05:11:01.236Z,-0.70
2023-03-08T05:13:30.580Z,-0.70
2023-03-08T05:15:57.936Z,-0.70
2023-03-08T05:18:24.890Z,-0.70
2023-03-08T05:21:11.812Z,-0.70
2023-03-08T05:23:38.630Z,-0.70
2023-03-08T05:26:06.848Z,-0.70
2023-03-08T05:28:35.536Z,-0.70
2023-03-08T05:31:14.096Z,-0.60
2023-03-08T05:33:41.751Z,-0.70
2023-03-08T05:36:10.134Z,-0.60
2023-03-08T05:38:36.981Z,-0.60
2023-03-08T05:41:09.267Z,-0.50
2023-03-08T05:43:36.298Z,-0.50
2023-03-08T05:46:07.704Z,-0.50
2023-03-08T05:48:35.566Z,-0.50
2023-03-08T05:51:20.580Z,-0.50
2023-03-08T05:53:47.626Z,-0.40
2023-03-08T05:56:20.371Z,-0.40
2023-03-08T05:58:55.031Z,-0.40
2023-03-08T06:01:25.239Z,-0.40
2023-03-08T06:03:55.321Z,-0.40
2023-03-08T06:06:24.602Z,-0.30
2023-03-08T06:08:51.671Z,-0.30
2023-03-08T06:11:19.176Z,-0.20
2023-03-08T06:13:45.967Z,-0.20
2023-03-08T06:16:12.837Z,-0.20
2023-03-08T06:18:41.188Z,-0.20
2023-03-08T06:21:14.033Z,-0.10
2023-03-08T06:23:41.209Z,-0.10
2023-03-08T06:26:09.790Z,-0.20
2023-03-08T06:28:37.859Z,-0.20
2023-03-08T06:31:04.771Z,-0.20
2023-03-08T06:33:33.184Z,-0.10
2023-03-08T06:36:08.576Z,-0.10
2023-03-08T06:38:37.216Z,-0.20
2023-03-08T06:41:04.788Z,-0.20
2023-03-08T06:43:32.438Z,-0.20
2023-03-08T06:46:02.927Z,-0.20
2023-03-08T06:48:29.741Z,-0.20
2023-03-08T06:50:56.550Z,-0.20
2023-03-08T06:53:23.237Z,-0.20
2023-03-08T06:55:50.083Z,-0.30
2023-03-08T06:58:16.942Z,-0.20
2023-03-08T07:00:43.706Z,-0.20
2023-03-08T07:03:12.253Z,-0.20
2023-03-08T07:05:39.639Z,-0.20
2023-03-08T07:08:07.151Z,-0.10
2023-03-08T07:10:34.302Z,-0.10
2023-03-08T07:13:01.139Z,-0.10
2023-03-08T07:15:28.101Z,0.00
2023-03-08T07:17:56.847Z,-0.10
2023-03-08T07:20:25.604Z,0.00
2023-03-08T07:22:52.427Z,0.00
2023-03-08T07:25:20.849Z,0.00
2023-03-08T07:27:48.127Z,0.00
2023-03-08T07:30:16.592Z,0.00
2023-03-08T07:32:43.657Z,0.10
2023-03-08T07:35:12.855Z,0.10
2023-03-08T07:37:40.416Z,0.10
2023-03-08T07:40:08.686Z,0.20
2023-03-08T07:42:35.478Z,0.10
2023-03-08T07:45:02.325Z,0.20
2023-03-08T07:47:29.119Z,0.20
2023-03-08T07:49:55.902Z,0.20
2023-03-08T07:52:30.276Z,0.30
2023-03-08T07:54:57.188Z,0.30
2023-03-08T07:57:24.123Z,0.30
2023-03-08T07:59:53.433Z,0.40
2023-03-08T08:02:21.022Z,0.40
2023-03-08T08:04:47.823Z,0.40
2023-03-08T08:07:16.244Z,0.40
2023-03-08T08:09:43.658Z,0.40
2023-03-08T08:12:10.739Z,0.50
2023-03-08T08:14:37.643Z,0.50
2023-03-08T08:17:06.830Z,0.60
2023-03-08T08:19:33.733Z,0.80
2023-03-08T08:22:00.629Z,0.80
2023-03-08T08:24:28.128Z,0.90
2023-03-08T08:26:56.846Z,1.00
2023-03-08T08:29:24.296Z,1.10
2023-03-08T08:31:54.341Z,1.10
2023-03-08T08:34:21.196Z,1.20
2023-03-08T08:36:48.073Z,1.30
2023-03-08T08:39:14.958Z,1.50
2023-03-08T08:41:41.813Z,1.50
2023-03-08T08:44:08.691Z,1.60
2023-03-08T08:46:37.527Z,1.60
2023-03-08T08:49:04.493Z,1.50
2023-03-08T08:51:31.421Z,1.50
2023-03-08T08:53:58.314Z,1.60
2023-03-08T08:56:28.747Z,1.70
2023-03-08T08:58:57.190Z,1.70
2023-03-08T09:01:27.140Z,1.60
2023-03-08T09:03:54.712Z,1.70
2023-03-08T09:06:24.398Z,1.70
2023-03-08T09:08:53.860Z,1.80
2023-03-08T09:11:21.648Z,1.80
2023-03-08T09:13:48.436Z,1.80
2023-03-08T09:16:18.289Z,1.90
2023-03-08T09:18:45.211Z,1.90
2023-03-08T09:21:11.912Z,2.00
2023-03-08T09:23:38.644Z,2.00
2023-03-08T09:26:05.522Z,2.00
2023-03-08T09:28:33.206Z,2.00
2023-03-08T09:31:10.078Z,2.00
2023-03-08T09:33:36.851Z,2.00
2023-03-08T09:36:04.122Z,2.10
2023-03-08T09:38:30.967Z,2.20
2023-03-08T09:41:31.344Z,2.20
2023-03-08T09:44:32.574Z,2.30
2023-03-08T09:47:13.103Z,2.40
2023-03-08T09:49:45.091Z,2.50
2023-03-08T09:52:18.158Z,2.50
2023-03-08T09:54:45.366Z,2.50
2023-03-08T09:57:23.788Z,2.60
2023-03-08T09:59:57.022Z,2.80
2023-03-08T10:02:46.990Z,2.80
2023-03-08T10:05:24.858Z,2.80
2023-03-08T10:07:51.568Z,3.00
2023-03-08T10:10:41.334Z,3.10
2023-03-08T10:13:17.233Z,3.20
2023-03-08T10:15:51.473Z,3.20
2023-03-08T10:18:46.994Z,3.20
2023-03-08T10:21:16.900Z,3.40
2023-03-08T10:23:47.287Z,3.30
2023-03-08T10:26:15.500Z,3.30
2023-03-08T10:28:42.221Z,3.40
2023-03-08T10:31:29.654Z,3.60
2023-03-08T10:34:16.743Z,3.60
2023-03-08T10:37:00.109Z,3.80
2023-03-08T10:39:35.401Z,3.90
2023-03-08T10:42:13.305Z,3.80
2023-03-08T10:44:55.326Z,3.80
2023-03-08T10:47:33.987Z,3.70
2023-03-08T10:50:17.818Z,3.70
2023-03-08T10:52:50.023Z,3.70
2023-03-08T10:55:37.133Z,3.80
2023-03-08T10:58:04.037Z,3.90
2023-03-08T11:00:35.400Z,3.80
2023-03-08T11:03:22.728Z,3.80
2023-03-08T11:06:03.029Z,3.80
2023-03-08T11:08:39.484Z,3.90
2023-03-08T11:11:14.122Z,3.90
2023-03-08T11:13:43.716Z,4.10
2023-03-08T11:16:36.182Z,4.10
2023-03-08T11:19:23.965Z,4.00
2023-03-08T11:22:05.131Z,4.10
2023-03-08T11:24:46.661Z,4.10
2023-03-08T11:27:39.979Z,4.30
2023-03-08T11:30:21.570Z,4.40
2023-03-08T11:33:14.438Z,4.40
2023-03-08T11:36:10.531Z,4.50
2023-03-08T11:38:39.336Z,4.50
2023-03-08T11:41:36.823Z,4.60
2023-03-08T11:44:20.844Z,4.60
2023-03-08T11:47:07.747Z,4.60
2023-03-08T11:50:05.738Z,4.60
2023-03-08T11:52:35.576Z,4.60
2023-03-08T11:55:26.887Z,4.60
2023-03-08T11:58:03.715Z,4.70
2023-03-08T12:00:37.259Z,4.70
2023-03-08T12:03:18.125Z,4.80
2023-03-08T12:05:51.812Z,4.90
2023-03-08T12:08:29.258Z,4.80
2023-03-08T12:11:21.107Z,4.70
2023-03-08T12:13:53.503Z,4.60
2023-03-08T12:16:45.724Z,4.70
2023-03-08T12:19:34.472Z,4.70
2023-03-08T12:22:11.305Z,4.90
2023-03-08T12:24:55.954Z,4.90
2023-03-08T12:27:43.297Z,5.10
2023-03-08T12:30:37.921Z,5.20
2023-03-08T12:33:06.351Z,5.30
2023-03-08T12:35:35.597Z,5.20
2023-03-08T12:38:15.790Z,5.40
2023-03-08T12:40:51.239Z,5.50
2023-03-08T12:43:21.162Z,5.50
2023-03-08T12:46:01.359Z,5.50
2023-03-08T12:48:31.715Z,5.40
2023-03-08T12:51:07.658Z,5.40
2023-03-08T12:53:45.123Z,5.30
2023-03-08T12:56:11.913Z,5.30
2023-03-08T12:58:51.913Z,5.30
2023-03-08T13:01:28.950Z,5.30
2023-03-08T13:03:55.956Z,5.10
2023-03-08T13:06:25.845Z,5.00
2023-03-08T13:09:07.364Z,5.00
2023-03-08T13:11:44.663Z,5.00
2023-03-08T13:14:41.346Z,5.10
2023-03-08T13:17:26.783Z,5.10
2023-03-08T13:19:54.735Z,4.90
2023-03-08T13:22:41.690Z,4.80
2023-03-08T13:25:39.194Z,4.70
2023-03-08T13:28:18.878Z,4.60
2023-03-08T13:31:01.378Z,4.60
2023-03-08T13:33:31.167Z,4.60
2023-03-08T13:36:22.448Z,4.60
2023-03-08T13:39:07.148Z,4.70
2023-03-08T13:41:43.199Z,4.70
2023-03-08T13:44:24.498Z,4.60
2023-03-08T13:46:57.325Z,4.50
2023-03-08T13:49:36.120Z,4.40
2023-03-08T13:52:14.215Z,4.40
2023-03-08T13:54:47.115Z,4.40
2023-03-08T13:57:26.678Z,4.30
2023-03-08T13:59:59.764Z,4.30
2023-03-08T14:02:29.424Z,4.30
2023-03-08T14:04:57.329Z,4.10
2023-03-08T14:07:27.614Z,4.00
2023-03-08T14:09:55.214Z,3.90
2023-03-08T14:12:27.528Z,3.80
2023-03-08T14:15:01.620Z,3.70
2023-03-08T14:17:31.398Z,3.70
2023-03-08T14:20:04.336Z,3.70
2023-03-08T14:22:40.231Z,3.70
2023-03-08T14:25:20.722Z,3.70
2023-03-08T14:27:47.829Z,3.70
2023-03-08T14:30:23.519Z,3.60
2023-03-08T14:32:56.015Z,3.60
2023-03-08T14:35:35.141Z,3.50
2023-03-08T14:38:02.228Z,3.40
2023-03-08T14:40:35.026Z,3.40
2023-03-08T14:43:07.014Z,3.30
2023-03-08T14:45:38.482Z,3.30
2023-03-08T14:48:37.829Z,3.30
2023-03-08T14:51:28.138Z,3.30
2023-03-08T14:54:03.914Z,3.30
2023-03-08T14:56:30.850Z,3.20
2023-03-08T14:59:02.612Z,3.20
2023-03-08T15:01:36.621Z,3.20
2023-03-08T15:04:06.789Z,3.20
2023-03-08T15:06:36.289Z,3.10
2023-03-08T15:09:08.930Z,3.10
2023-03-08T15:11:45.403Z,3.10
2023-03-08T15:14:17.322Z,3.00
2023-03-08T15:16:44.690Z,3.00
2023-03-08T15:19:14.295Z,2.90
2023-03-08T15:21:42.493Z,2.90
2023-03-08T15:24:14.955Z,2.90
2023-03-08T15:26:42.000Z,2.90
2023-03-08T15:29:33.821Z,2.90
2023-03-08T15:32:00.609Z,2.90
2023-03-08T15:34:28.528Z,2.90
2023-03-08T15:36:55.990Z,2.80
2023-03-08T15:39:22.925Z,2.80
2023-03-08T15:41:49.886Z,2.80
2023-03-08T15:44:17.040Z,2.80
2023-03-08T15:46:45.343Z,2.70
2023-03-08T15:49:12.278Z,2.70
2023-03-08T15:51:44.057Z,2.70
2023-03-08T15:54:11.501Z,2.60
2023-03-08T15:56:49.085Z,2.60
2023-03-08T16:02:06.377Z,2.50
2023-03-08T16:04:46.950Z,2.50
2023-03-08T16:07:19.614Z,2.50
2023-03-08T16:10:53.084Z,2.50
2023-03-08T16:13:03.030Z,2.50
2023-03-08T16:15:29.793Z,2.50
2023-03-08T16:18:10.418Z,2.50
2023-03-08T16:20:43.329Z,2.40
2023-03-08T16:23:21.998Z,2.40
2023-03-08T16:27:03.873Z,2.40
2023-03-08T16:29:40.379Z,2.40
2023-03-08T16:38:17.773Z,2.20
2023-03-08T16:41:11.836Z,2.20
2023-03-08T16:44:27.210Z,2.20
2023-03-08T16:47:37.003Z,2.10
2023-03-08T16:50:13.593Z,2.10
2023-03-08T16:52:56.776Z,2.10
2023-03-08T16:55:37.087Z,2.10
2023-03-08T16:58:26.188Z,2.20
2023-03-08T17:00:53.072Z,2.20
2023-03-08T17:03:21.467Z,2.20
2023-03-08T17:05:48.339Z,2.10
2023-03-08T17:08:15.288Z,2.10
2023-03-08T17:10:44.898Z,2.10
2023-03-08T17:13:12.098Z,2.10
2023-03-08T17:15:40.725Z,2.20
2023-03-08T17:18:07.856Z,2.20
2023-03-08T17:20:38.182Z,2.10
2023-03-08T17:23:05.185Z,2.10
2023-03-08T17:25:34.777Z,2.10
2023-03-08T17:28:02.168Z,2.10
2023-03-08T17:30:29.284Z,2.10
2023-03-08T17:32:58.729Z,2.10
2023-03-08T17:35:26.297Z,2.10
2023-03-08T17:37:53.088Z,2.10
2023-03-08T17:40:20.188Z,2.10
2023-03-08T17:42:49.472Z,2.00
2023-03-08T17:45:17.443Z,2.10
2023-03-08T17:47:44.584Z,2.10
2023-03-08T17:50:12.745Z,2.10
2023-03-08T17:52:40.950Z,2.10
2023-03-08T17:55:08.509Z,2.10
2023-03-08T17:57:36.592Z,2.10
2023-03-08T18:00:05.466Z,2.10
2023-03-08T18:02:33.501Z,2.10
2023-03-08T18:05:00.433Z,2.10
2023-03-08T18:07:27.145Z,2.10
2023-03-08T18:09:53.965Z,2.10
2023-03-08T18:12:20.852Z,2.10
2023-03-08T18:14:47.600Z,2.10
2023-03-08T18:17:14.339Z,2.10
2023-03-08T18:19:41.083Z,2.10
2023-03-08T18:22:08.032Z,2.10
2023-03-08T18:24:35.047Z,2.10
2023-03-08T18:27:02.049Z,2.00
2023-03-08T18:29:28.858Z,2.00
2023-03-08T18:31:55.629Z,2.00
2023-03-08T18:34:22.470Z,2.00
2023-03-08T18:36:49.278Z,2.00
2023-03-08T18:39:16.080Z,2.00
2023-03-08T18:41:43.063Z,2.00
2023-03-08T18:44:11.940Z,2.10
2023-03-08T18:46:38.831Z,2.10
2023-03-08T18:49:09.062Z,2.00
2023-03-08T18:51:38.067Z,2.00
2023-03-08T18:54:05.896Z,2.00
2023-03-08T18:56:32.818Z,2.00
2023-03-08T18:59:03.452Z,2.00
2023-03-08T19:01:31.613Z,2.00
2023-03-08T19:03:59.801Z,1.90
2023-03-08T19:06:26.904Z,1.80
2023-03-08T19:08:53.687Z,1.70
2023-03-08T19:11:23.358Z,1.70
2023-03-08T19:13:50.514Z,1.70
2023-03-08T19:16:26.435Z,1.80
2023-03-08T19:19:00.876Z,1.80
2023-03-08T19:21:33.400Z,1.70
2023-03-08T19:24:00.239Z,1.80
2023-03-08T19:26:33.359Z,1.80
2023-03-08T19:29:01.651Z,1.80
2023-03-08T19:31:29.121Z,1.80
2023-03-08T19:33:56.382Z,1.80
2023-03-08T19:36:24.427Z,1.80
2023-03-08T19:38:51.236Z,1.80
2023-03-08T19:41:18.101Z,1.80
2023-03-08T19:43:44.898Z,1.70
2023-03-08T19:46:11.749Z,1.70
2023-03-08T19:48:40.691Z,1.70
2023-03-08T19:51:07.385Z,1.70
2023-03-08T19:53:34.364Z,1.70
2023-03-08T19:56:01.055Z,1.70
2023-03-08T19:58:27.770Z,1.60
2023-03-08T20:01:02.796Z,1.70
2023-03-08T20:03:32.031Z,1.70
2023-03-08T20:05:58.937Z,1.70
2023-03-08T20:08:25.717Z,1.60
2023-03-08T20:10:53.180Z,1.60
2023-03-08T20:13:20.047Z,1.60
2023-03-08T20:15:46.862Z,1.60
2023-03-08T20:18:14.057Z,1.70
2023-03-08T20:20:40.929Z,1.70
2023-03-08T20:23:08.147Z,1.70
2023-03-08T20:25:34.994Z,1.70
2023-03-08T20:28:01.984Z,1.70
2023-03-08T20:30:28.839Z,1.70
2023-03-08T20:32:55.662Z,1.70
2023-03-08T20:35:23.969Z,1.70
2023-03-08T20:37:52.878Z,1.70
2023-03-08T20:40:19.820Z,1.70
2023-03-08T20:42:46.975Z,1.70
2023-03-08T20:45:13.771Z,1.80
2023-03-08T20:47:40.560Z,1.70
2023-03-08T20:50:07.846Z,1.80
2023-03-08T20:52:34.606Z,1.80
2023-03-08T20:55:01.443Z,1.80
2023-03-08T20:57:28.188Z,1.80
2023-03-08T20:59:55.160Z,1.80
2023-03-08T21:02:21.956Z,1.80
2023-03-08T21:04:48.861Z,1.80
2023-03-08T21:07:15.583Z,1.80
2023-03-08T21:09:43.738Z,1.80
2023-03-08T21:12:10.568Z,1.80
2023-03-08T21:14:37.309Z,1.80
2023-03-08T21:17:04.096Z,1.80
2023-03-08T21:19:30.884Z,1.80
2023-03-08T21:21:57.670Z,1.70
2023-03-08T21:24:24.450Z,1.70
2023-03-08T21:26:51.771Z,1.70
2023-03-08T21:29:21.059Z,1.70
2023-03-08T21:31:52.734Z,1.70
2023-03-08T21:34:20.287Z,1.70
2023-03-08T21:36:47.229Z,1.70
2023-03-08T21:39:14.289Z,1.70
2023-03-08T21:41:43.210Z,1.70
2023-03-08T21:44:13.935Z,1.70
2023-03-08T21:46:41.452Z,1.80
2023-03-08T21:49:13.738Z,1.80
2023-03-08T21:51:40.520Z,1.70
2023-03-08T21:54:10.012Z,1.80
2023-03-08T21:56:36.964Z,1.70
2023-03-08T21:59:04.306Z,1.80
2023-03-08T22:01:32.224Z,1.70
2023-03-08T22:04:00.503Z,1.70
2023-03-08T22:06:27.752Z,1.80
2023-03-08T22:08:54.973Z,1.80
2023-03-08T22:11:23.007Z,1.70
2023-03-08T22:13:55.879Z,1.80
2023-03-08T22:16:23.100Z,1.80
2023-03-08T22:18:58.965Z,1.80
2023-03-08T22:21:26.577Z,1.80
2023-03-08T22:23:54.946Z,1.80
2023-03-08T22:26:23.875Z,1.80
2023-03-08T22:28:54.615Z,1.80
2023-03-08T22:31:24.428Z,1.90
2023-03-08T22:33:51.775Z,1.80
2023-03-08T22:36:19.923Z,1.80
2023-03-08T22:38:46.871Z,1.80
2023-03-08T22:41:20.097Z,1.80
2023-03-08T22:43:47.444Z,1.80
2023-03-08T22:46:20.166Z,1.80
2023-03-08T22:48:47.817Z,1.70
2023-03-08T22:51:16.820Z,1.70
2023-03-08T22:53:43.676Z,1.70
2023-03-08T22:56:25.373Z,1.70
2023-03-08T22:58:52.686Z,1.70
2023-03-08T23:01:21.943Z,1.70
2023-03-08T23:03:54.103Z,1.70
2023-03-08T23:06:21.054Z,1.70
2023-03-08T23:08:47.937Z,1.70
2023-03-08T23:11:18.748Z,1.70
2023-03-08T23:13:45.864Z,1.70
2023-03-08T23:16:14.945Z,1.70
2023-03-08T23:18:43.187Z,1.80
2023-03-08T23:21:12.953Z,1.70
2023-03-08T23:23:42.898Z,1.80
2023-03-08T23:26:15.504Z,1.70
2023-03-08T23:28:42.728Z,1.70
2023-03-08T23:31:15.306Z,1.70
2023-03-08T23:33:43.117Z,1.70
2023-03-08T23:36:11.522Z,1.60
2023-03-08T23:38:38.718Z,1.60
2023-03-08T23:41:08.015Z,1.60
2023-03-08T23:43:35.912Z,1.60
2023-03-08T23:46:14.568Z,1.70
2023-03-08T23:48:45.843Z,1.70
2023-03-08T23:51:20.972Z,1.60
2023-03-08T23:53:53.546Z,1.60
2023-03-08T23:56:24.467Z,1.60
2023-03-08T23:58:51.176Z,1.60
